sensor_id;sensor_type;location;lat;lon;timestamp;pressure;altitude;pressure_sealevel;temperature;humidity
65832;BME280;52593;42.648;23.332;2023-12-22T00:01:06;93041.28;;;-0.18;94.19
65832;BME280;52593;42.648;23.332;2023-12-22T00:03:32;93023.66;;;-0.26;93.58
65832;BME280;52593;42.648;23.332;2023-12-22T00:05:57;93035.00;;;-0.25;93.94
65832;BME280;52593;42.648;23.332;2023-12-22T00:08:23;93031.09;;;-0.21;94.50
65832;BME280;52593;42.648;23.332;2023-12-22T00:10:49;93031.94;;;-0.12;93.97
65832;BME280;52593;42.648;23.332;2023-12-22T00:13:15;93026.31;;;-0.17;94.10
65832;BME280;52593;42.648;23.332;2023-12-22T00:15:40;93022.94;;;-0.02;94.31
65832;BME280;52593;42.648;23.332;2023-12-22T00:18:07;93028.88;;;0.01;93.67
65832;BME280;52593;42.648;23.332;2023-12-22T00:20:33;93016.38;;;-0.06;92.38
65832;BME280;52593;42.648;23.332;2023-12-22T00:22:59;93010.75;;;-0.11;93.35
65832;BME280;52593;42.648;23.332;2023-12-22T00:25:24;93021.94;;;-0.09;93.57
65832;BME280;52593;42.648;23.332;2023-12-22T00:27:50;93005.31;;;-0.09;92.88
65832;BME280;52593;42.648;23.332;2023-12-22T00:30:15;93008.41;;;-0.14;92.95
65832;BME280;52593;42.648;23.332;2023-12-22T00:32:41;93012.75;;;-0.05;93.34
65832;BME280;52593;42.648;23.332;2023-12-22T00:35:06;92998.84;;;0.03;92.74
65832;BME280;52593;42.648;23.332;2023-12-22T00:37:32;92982.09;;;0.12;92.30
65832;BME280;52593;42.648;23.332;2023-12-22T00:39:57;92978.78;;;0.02;91.94
65832;BME280;52593;42.648;23.332;2023-12-22T00:42:23;92978.63;;;0.12;92.73
65832;BME280;52593;42.648;23.332;2023-12-22T00:44:48;92991.50;;;0.23;91.86
65832;BME280;52593;42.648;23.332;2023-12-22T00:47:14;92981.00;;;0.23;92.12
65832;BME280;52593;42.648;23.332;2023-12-22T00:49:39;92951.19;;;0.23;91.07
65832;BME280;52593;42.648;23.332;2023-12-22T00:52:05;92965.47;;;0.12;90.61
65832;BME280;52593;42.648;23.332;2023-12-22T00:54:30;92951.34;;;0.13;90.70
65832;BME280;52593;42.648;23.332;2023-12-22T00:56:57;92946.91;;;0.13;91.53
65832;BME280;52593;42.648;23.332;2023-12-22T00:59:23;92972.06;;;0.08;91.64
65832;BME280;52593;42.648;23.332;2023-12-22T01:01:49;92945.78;;;0.24;91.27
65832;BME280;52593;42.648;23.332;2023-12-22T01:04:15;92958.78;;;0.26;89.82
65832;BME280;52593;42.648;23.332;2023-12-22T01:06:40;92975.84;;;0.13;90.52
65832;BME280;52593;42.648;23.332;2023-12-22T01:09:06;92986.53;;;0.12;90.93
65832;BME280;52593;42.648;23.332;2023-12-22T01:11:32;92982.63;;;0.24;90.74
65832;BME280;52593;42.648;23.332;2023-12-22T01:13:57;92991.97;;;0.19;90.88
65832;BME280;52593;42.648;23.332;2023-12-22T01:16:23;92987.00;;;0.07;91.25
65832;BME280;52593;42.648;23.332;2023-12-22T01:18:49;92957.81;;;0.27;91.40
65832;BME280;52593;42.648;23.332;2023-12-22T01:21:16;92985.28;;;0.41;90.43
65832;BME280;52593;42.648;23.332;2023-12-22T01:23:42;92970.25;;;0.16;90.71
65832;BME280;52593;42.648;23.332;2023-12-22T01:26:07;92973.09;;;0.23;91.55
65832;BME280;52593;42.648;23.332;2023-12-22T01:28:36;92959.31;;;0.38;91.05
65832;BME280;52593;42.648;23.332;2023-12-22T01:31:02;92969.13;;;0.27;91.58
65832;BME280;52593;42.648;23.332;2023-12-22T01:33:28;92960.28;;;0.28;91.69
65832;BME280;52593;42.648;23.332;2023-12-22T01:35:54;92964.72;;;0.44;91.20
65832;BME280;52593;42.648;23.332;2023-12-22T01:38:20;92961.63;;;0.41;90.00
65832;BME280;52593;42.648;23.332;2023-12-22T01:40:45;92956.34;;;0.49;90.59
65832;BME280;52593;42.648;23.332;2023-12-22T01:43:11;92939.25;;;0.53;90.18
65832;BME280;52593;42.648;23.332;2023-12-22T01:45:38;92950.44;;;0.47;90.06
65832;BME280;52593;42.648;23.332;2023-12-22T01:48:04;92924.97;;;0.56;90.62
65832;BME280;52593;42.648;23.332;2023-12-22T01:50:30;92943.03;;;0.50;90.83
65832;BME280;52593;42.648;23.332;2023-12-22T01:52:56;92917.06;;;0.56;90.84
65832;BME280;52593;42.648;23.332;2023-12-22T01:55:22;92932.06;;;0.63;90.51
65832;BME280;52593;42.648;23.332;2023-12-22T01:57:48;92914.28;;;0.65;88.57
65832;BME280;52593;42.648;23.332;2023-12-22T02:00:14;92915.75;;;0.51;89.28
65832;BME280;52593;42.648;23.332;2023-12-22T02:02:41;92933.19;;;0.61;89.27
65832;BME280;52593;42.648;23.332;2023-12-22T02:05:10;92893.03;;;0.50;89.54
65832;BME280;52593;42.648;23.332;2023-12-22T02:07:38;92922.97;;;0.58;90.28
65832;BME280;52593;42.648;23.332;2023-12-22T02:10:08;92924.81;;;0.57;89.58
65832;BME280;52593;42.648;23.332;2023-12-22T02:12:34;92907.69;;;0.61;90.40
65832;BME280;52593;42.648;23.332;2023-12-22T02:15:00;92927.44;;;0.65;90.43
65832;BME280;52593;42.648;23.332;2023-12-22T02:17:52;92903.09;;;0.80;90.50
65832;BME280;52593;42.648;23.332;2023-12-22T02:20:21;92917.56;;;0.84;88.79
65832;BME280;52593;42.648;23.332;2023-12-22T02:22:51;92908.03;;;0.66;89.69
65832;BME280;52593;42.648;23.332;2023-12-22T02:25:17;92913.63;;;0.71;89.55
65832;BME280;52593;42.648;23.332;2023-12-22T02:33:04;92902.78;;;0.83;90.03
65832;BME280;52593;42.648;23.332;2023-12-22T02:35:32;92919.03;;;0.95;89.72
65832;BME280;52593;42.648;23.332;2023-12-22T02:37:59;92906.53;;;0.88;89.69
65832;BME280;52593;42.648;23.332;2023-12-22T02:40:26;92906.69;;;0.87;89.33
65832;BME280;52593;42.648;23.332;2023-12-22T02:42:53;92901.28;;;0.97;88.77
65832;BME280;52593;42.648;23.332;2023-12-22T02:45:19;92896.50;;;1.00;88.34
65832;BME280;52593;42.648;23.332;2023-12-22T02:47:46;92896.97;;;1.12;87.48
65832;BME280;52593;42.648;23.332;2023-12-22T02:50:16;92894.66;;;1.17;87.54
65832;BME280;52593;42.648;23.332;2023-12-22T02:52:41;92897.09;;;1.27;87.16
65832;BME280;52593;42.648;23.332;2023-12-22T02:55:08;92890.53;;;1.23;87.13
65832;BME280;52593;42.648;23.332;2023-12-22T02:57:34;92876.53;;;1.14;87.47
65832;BME280;52593;42.648;23.332;2023-12-22T02:59:59;92872.75;;;1.09;87.03
65832;BME280;52593;42.648;23.332;2023-12-22T03:02:25;92869.28;;;1.16;86.63
65832;BME280;52593;42.648;23.332;2023-12-22T03:04:50;92863.34;;;1.31;86.95
65832;BME280;52593;42.648;23.332;2023-12-22T03:07:16;92853.78;;;1.30;86.63
65832;BME280;52593;42.648;23.332;2023-12-22T03:09:42;92839.16;;;1.19;87.18
65832;BME280;52593;42.648;23.332;2023-12-22T03:12:08;92868.09;;;1.27;87.44
65832;BME280;52593;42.648;23.332;2023-12-22T03:14:35;92859.38;;;1.35;86.30
65832;BME280;52593;42.648;23.332;2023-12-22T03:17:04;92863.00;;;1.34;85.98
65832;BME280;52593;42.648;23.332;2023-12-22T03:19:31;92880.31;;;1.28;86.31
65832;BME280;52593;42.648;23.332;2023-12-22T03:21:57;92865.63;;;1.34;86.30
65832;BME280;52593;42.648;23.332;2023-12-22T03:24:23;92860.22;;;1.27;86.60
65832;BME280;52593;42.648;23.332;2023-12-22T03:26:49;92874.56;;;1.16;87.42
65832;BME280;52593;42.648;23.332;2023-12-22T03:29:15;92870.94;;;1.17;87.99
65832;BME280;52593;42.648;23.332;2023-12-22T03:31:41;92890.53;;;1.23;88.21
65832;BME280;52593;42.648;23.332;2023-12-22T03:34:06;92885.59;;;1.20;88.46
65832;BME280;52593;42.648;23.332;2023-12-22T03:36:32;92884.59;;;1.21;88.33
65832;BME280;52593;42.648;23.332;2023-12-22T03:38:58;92885.78;;;1.18;88.38
65832;BME280;52593;42.648;23.332;2023-12-22T03:41:23;92876.00;;;1.35;88.09
65832;BME280;52593;42.648;23.332;2023-12-22T03:43:49;92874.88;;;1.30;87.34
65832;BME280;52593;42.648;23.332;2023-12-22T03:46:14;92873.88;;;1.31;87.53
65832;BME280;52593;42.648;23.332;2023-12-22T03:48:40;92866.78;;;1.31;88.26
65832;BME280;52593;42.648;23.332;2023-12-22T03:51:05;92872.75;;;1.33;87.90
65832;BME280;52593;42.648;23.332;2023-12-22T03:53:31;92863.66;;;1.36;87.64
65832;BME280;52593;42.648;23.332;2023-12-22T03:55:56;92876.16;;;1.42;87.08
65832;BME280;52593;42.648;23.332;2023-12-22T03:58:22;92870.75;;;1.35;88.09
65832;BME280;52593;42.648;23.332;2023-12-22T04:00:48;92869.94;;;1.35;88.60
65832;BME280;52593;42.648;23.332;2023-12-22T04:03:13;92869.25;;;1.41;88.94
65832;BME280;52593;42.648;23.332;2023-12-22T04:05:39;92860.50;;;1.49;87.93
65832;BME280;52593;42.648;23.332;2023-12-22T04:08:05;92870.19;;;1.56;88.26
65832;BME280;52593;42.648;23.332;2023-12-22T04:10:31;92874.25;;;1.67;87.75
65832;BME280;52593;42.648;23.332;2023-12-22T04:12:56;92867.28;;;1.74;86.98
65832;BME280;52593;42.648;23.332;2023-12-22T04:15:22;92870.19;;;1.56;86.92
65832;BME280;52593;42.648;23.332;2023-12-22T04:17:47;92873.34;;;1.52;88.13
65832;BME280;52593;42.648;23.332;2023-12-22T04:20:13;92869.50;;;1.63;88.09
65832;BME280;52593;42.648;23.332;2023-12-22T04:22:38;92863.31;;;1.47;88.38
65832;BME280;52593;42.648;23.332;2023-12-22T04:25:04;92865.47;;;1.35;89.94
65832;BME280;52593;42.648;23.332;2023-12-22T04:27:31;92854.59;;;1.30;91.53
65832;BME280;52593;42.648;23.332;2023-12-22T04:29:57;92863.34;;;1.31;91.57
65832;BME280;52593;42.648;23.332;2023-12-22T04:32:22;92859.22;;;1.36;91.88
65832;BME280;52593;42.648;23.332;2023-12-22T04:34:48;92855.91;;;1.34;91.97
65832;BME280;52593;42.648;23.332;2023-12-22T04:37:13;92854.41;;;1.40;92.79
65832;BME280;52593;42.648;23.332;2023-12-22T04:39:39;92857.88;;;1.40;92.83
65832;BME280;52593;42.648;23.332;2023-12-22T04:42:05;92853.44;;;1.41;93.15
65832;BME280;52593;42.648;23.332;2023-12-22T04:44:30;92837.13;;;1.46;92.83
65832;BME280;52593;42.648;23.332;2023-12-22T04:46:56;92849.44;;;1.53;92.31
65832;BME280;52593;42.648;23.332;2023-12-22T04:49:22;92833.28;;;1.56;91.56
65832;BME280;52593;42.648;23.332;2023-12-22T04:51:48;92844.34;;;1.52;91.18
65832;BME280;52593;42.648;23.332;2023-12-22T04:54:13;92825.03;;;1.59;91.01
65832;BME280;52593;42.648;23.332;2023-12-22T04:56:39;92844.97;;;1.54;91.28
65832;BME280;52593;42.648;23.332;2023-12-22T04:59:04;92840.53;;;1.54;91.28
65832;BME280;52593;42.648;23.332;2023-12-22T05:01:30;92831.94;;;1.60;90.91
65832;BME280;52593;42.648;23.332;2023-12-22T05:03:55;92835.19;;;1.71;90.99
65832;BME280;52593;42.648;23.332;2023-12-22T05:06:20;92835.88;;;1.65;91.06
65832;BME280;52593;42.648;23.332;2023-12-22T05:08:46;92842.47;;;1.60;90.14
65832;BME280;52593;42.648;23.332;2023-12-22T05:11:12;92822.06;;;1.54;91.22
65832;BME280;52593;42.648;23.332;2023-12-22T05:13:37;92827.50;;;1.53;92.19
65832;BME280;52593;42.648;23.332;2023-12-22T05:16:03;92820.56;;;1.60;91.61
65832;BME280;52593;42.648;23.332;2023-12-22T05:18:30;92822.88;;;1.63;89.84
65832;BME280;52593;42.648;23.332;2023-12-22T05:20:55;92821.44;;;1.52;91.27
65832;BME280;52593;42.648;23.332;2023-12-22T05:23:21;92820.47;;;1.45;91.38
65832;BME280;52593;42.648;23.332;2023-12-22T05:25:46;92828.53;;;1.43;91.73
65832;BME280;52593;42.648;23.332;2023-12-22T05:28:11;92830.25;;;1.28;92.42
65832;BME280;52593;42.648;23.332;2023-12-22T05:30:37;92833.38;;;1.32;93.03
65832;BME280;52593;42.648;23.332;2023-12-22T05:33:02;92842.78;;;1.26;93.73
65832;BME280;52593;42.648;23.332;2023-12-22T05:35:28;92853.28;;;1.42;92.61
65832;BME280;52593;42.648;23.332;2023-12-22T05:37:53;92836.16;;;1.38;92.53
65832;BME280;52593;42.648;23.332;2023-12-22T05:40:19;92846.69;;;1.38;93.09
65832;BME280;52593;42.648;23.332;2023-12-22T05:42:44;92858.88;;;1.31;93.56
65832;BME280;52593;42.648;23.332;2023-12-22T05:45:10;92850.63;;;1.42;93.29
65832;BME280;52593;42.648;23.332;2023-12-22T05:47:36;92834.31;;;1.47;92.99
65832;BME280;52593;42.648;23.332;2023-12-22T05:50:02;92831.00;;;1.45;92.49
65832;BME280;52593;42.648;23.332;2023-12-22T05:52:28;92823.59;;;1.40;93.21
65832;BME280;52593;42.648;23.332;2023-12-22T05:54:53;92818.16;;;1.50;93.21
65832;BME280;52593;42.648;23.332;2023-12-22T05:57:19;92838.22;;;1.59;91.45
65832;BME280;52593;42.648;23.332;2023-12-22T05:59:45;92820.78;;;1.50;92.48
65832;BME280;52593;42.648;23.332;2023-12-22T06:02:10;92829.09;;;1.70;91.77
65832;BME280;52593;42.648;23.332;2023-12-22T06:04:36;92825.88;;;1.52;91.41
65832;BME280;52593;42.648;23.332;2023-12-22T06:07:01;92819.66;;;1.45;93.02
65832;BME280;52593;42.648;23.332;2023-12-22T06:09:27;92822.59;;;1.50;92.89
65832;BME280;52593;42.648;23.332;2023-12-22T06:11:53;92826.69;;;1.52;93.72
65832;BME280;52593;42.648;23.332;2023-12-22T06:14:18;92837.88;;;1.63;93.55
65832;BME280;52593;42.648;23.332;2023-12-22T06:16:43;92851.19;;;1.69;92.85
65832;BME280;52593;42.648;23.332;2023-12-22T06:19:09;92851.22;;;1.61;93.04
65832;BME280;52593;42.648;23.332;2023-12-22T06:21:38;92854.22;;;1.50;93.32
65832;BME280;52593;42.648;23.332;2023-12-22T06:24:05;92846.59;;;1.63;93.17
65832;BME280;52593;42.648;23.332;2023-12-22T06:26:30;92846.41;;;1.65;93.50
65832;BME280;52593;42.648;23.332;2023-12-22T06:28:56;92846.53;;;1.71;92.84
65832;BME280;52593;42.648;23.332;2023-12-22T06:31:22;92862.72;;;1.68;93.64
65832;BME280;52593;42.648;23.332;2023-12-22T06:33:49;92848.38;;;1.71;93.69
65832;BME280;52593;42.648;23.332;2023-12-22T06:36:22;92856.75;;;1.74;94.01
65832;BME280;52593;42.648;23.332;2023-12-22T06:38:51;92842.88;;;1.81;93.63
65832;BME280;52593;42.648;23.332;2023-12-22T06:41:25;92860.31;;;1.90;93.74
65832;BME280;52593;42.648;23.332;2023-12-22T06:43:51;92856.97;;;1.96;93.17
65832;BME280;52593;42.648;23.332;2023-12-22T06:46:17;92862.25;;;1.96;93.11
65832;BME280;52593;42.648;23.332;2023-12-22T06:48:44;92851.19;;;2.01;93.18
65832;BME280;52593;42.648;23.332;2023-12-22T06:51:23;92843.94;;;1.94;91.90
65832;BME280;52593;42.648;23.332;2023-12-22T06:53:49;92859.59;;;1.96;91.75
65832;BME280;52593;42.648;23.332;2023-12-22T06:56:22;92859.78;;;1.94;92.63
65832;BME280;52593;42.648;23.332;2023-12-22T06:58:50;92851.88;;;1.94;92.29
65832;BME280;52593;42.648;23.332;2023-12-22T07:01:20;92860.00;;;1.85;93.22
65832;BME280;52593;42.648;23.332;2023-12-22T07:03:46;92854.22;;;1.89;93.67
65832;BME280;52593;42.648;23.332;2023-12-22T07:06:16;92861.22;;;2.05;93.15
65832;BME280;52593;42.648;23.332;2023-12-22T07:08:42;92863.38;;;2.02;93.85
65832;BME280;52593;42.648;23.332;2023-12-22T07:11:11;92858.59;;;2.05;94.09
65832;BME280;52593;42.648;23.332;2023-12-22T07:13:37;92851.66;;;2.04;94.28
65832;BME280;52593;42.648;23.332;2023-12-22T07:16:04;92863.88;;;2.05;94.48
65832;BME280;52593;42.648;23.332;2023-12-22T07:18:30;92868.31;;;2.05;94.33
65832;BME280;52593;42.648;23.332;2023-12-22T07:21:00;92864.69;;;2.06;95.10
65832;BME280;52593;42.648;23.332;2023-12-22T07:23:25;92866.97;;;2.09;95.55
65832;BME280;52593;42.648;23.332;2023-12-22T07:25:51;92878.66;;;2.14;95.77
65832;BME280;52593;42.648;23.332;2023-12-22T07:28:16;92876.84;;;2.15;96.19
65832;BME280;52593;42.648;23.332;2023-12-22T07:30:42;92880.28;;;2.16;96.05
65832;BME280;52593;42.648;23.332;2023-12-22T07:33:07;92874.81;;;2.25;95.87
65832;BME280;52593;42.648;23.332;2023-12-22T07:35:33;92873.09;;;2.32;94.82
65832;BME280;52593;42.648;23.332;2023-12-22T07:37:59;92858.38;;;2.38;95.70
65832;BME280;52593;42.648;23.332;2023-12-22T07:40:25;92883.09;;;2.45;95.73
65832;BME280;52593;42.648;23.332;2023-12-22T07:42:50;92875.00;;;2.47;95.36
65832;BME280;52593;42.648;23.332;2023-12-22T07:45:16;92881.84;;;2.56;95.03
65832;BME280;52593;42.648;23.332;2023-12-22T07:47:41;92875.63;;;2.49;95.55
65832;BME280;52593;42.648;23.332;2023-12-22T07:50:07;92879.56;;;2.53;95.93
65832;BME280;52593;42.648;23.332;2023-12-22T07:52:35;92882.22;;;2.53;95.92
65832;BME280;52593;42.648;23.332;2023-12-22T07:55:08;92905.91;;;2.61;96.25
65832;BME280;52593;42.648;23.332;2023-12-22T07:57:37;92899.28;;;2.65;95.64
65832;BME280;52593;42.648;23.332;2023-12-22T08:00:04;92898.75;;;2.70;95.52
65832;BME280;52593;42.648;23.332;2023-12-22T08:02:30;92913.72;;;2.78;94.88
65832;BME280;52593;42.648;23.332;2023-12-22T08:04:55;92898.50;;;2.80;94.73
65832;BME280;52593;42.648;23.332;2023-12-22T08:07:22;92901.31;;;2.78;95.23
65832;BME280;52593;42.648;23.332;2023-12-22T08:09:48;92921.22;;;2.89;95.13
65832;BME280;52593;42.648;23.332;2023-12-22T08:12:13;92921.69;;;2.93;93.15
65832;BME280;52593;42.648;23.332;2023-12-22T08:14:39;92923.41;;;2.85;94.39
65832;BME280;52593;42.648;23.332;2023-12-22T08:17:04;92928.34;;;2.89;94.84
65832;BME280;52593;42.648;23.332;2023-12-22T08:19:30;92939.88;;;2.88;95.33
65832;BME280;52593;42.648;23.332;2023-12-22T08:21:56;92935.63;;;2.87;95.79
65832;BME280;52593;42.648;23.332;2023-12-22T08:24:21;92939.44;;;2.84;96.82
65832;BME280;52593;42.648;23.332;2023-12-22T08:26:47;92937.03;;;2.74;97.07
65832;BME280;52593;42.648;23.332;2023-12-22T08:29:13;92936.25;;;2.89;96.91
65832;BME280;52593;42.648;23.332;2023-12-22T08:31:39;92938.63;;;2.83;97.39
65832;BME280;52593;42.648;23.332;2023-12-22T08:34:04;92946.06;;;2.80;98.37
65832;BME280;52593;42.648;23.332;2023-12-22T08:36:31;92932.84;;;2.80;99.33
65832;BME280;52593;42.648;23.332;2023-12-22T08:38:57;92940.19;;;2.70;100.00
65832;BME280;52593;42.648;23.332;2023-12-22T08:41:22;92931.03;;;2.80;100.00
65832;BME280;52593;42.648;23.332;2023-12-22T08:43:48;92942.06;;;2.84;100.00
65832;BME280;52593;42.648;23.332;2023-12-22T08:46:14;92946.53;;;2.83;100.00
65832;BME280;52593;42.648;23.332;2023-12-22T08:48:40;92928.94;;;2.76;100.00
65832;BME280;52593;42.648;23.332;2023-12-22T08:51:05;92937.59;;;2.84;100.00
65832;BME280;52593;42.648;23.332;2023-12-22T08:53:32;92926.81;;;2.94;100.00
65832;BME280;52593;42.648;23.332;2023-12-22T08:56:01;92929.63;;;2.93;100.00
65832;BME280;52593;42.648;23.332;2023-12-22T08:58:27;92922.63;;;3.00;100.00
65832;BME280;52593;42.648;23.332;2023-12-22T09:00:52;92943.81;;;3.15;100.00
65832;BME280;52593;42.648;23.332;2023-12-22T09:03:18;92943.53;;;3.10;100.00
65832;BME280;52593;42.648;23.332;2023-12-22T09:05:44;92949.69;;;3.02;100.00
65832;BME280;52593;42.648;23.332;2023-12-22T09:08:09;92947.59;;;2.97;100.00
65832;BME280;52593;42.648;23.332;2023-12-22T09:10:34;92951.31;;;3.03;100.00
65832;BME280;52593;42.648;23.332;2023-12-22T09:13:00;92956.63;;;3.03;100.00
65832;BME280;52593;42.648;23.332;2023-12-22T09:15:26;92962.38;;;3.07;100.00
65832;BME280;52593;42.648;23.332;2023-12-22T09:17:52;92957.47;;;3.18;100.00
65832;BME280;52593;42.648;23.332;2023-12-22T09:20:18;92961.69;;;3.13;100.00
65832;BME280;52593;42.648;23.332;2023-12-22T09:22:44;92967.31;;;3.10;100.00
65832;BME280;52593;42.648;23.332;2023-12-22T09:25:09;92973.88;;;3.37;100.00
65832;BME280;52593;42.648;23.332;2023-12-22T09:27:35;92970.34;;;3.45;100.00
65832;BME280;52593;42.648;23.332;2023-12-22T09:30:00;92970.78;;;3.48;100.00
65832;BME280;52593;42.648;23.332;2023-12-22T09:32:26;92966.31;;;3.34;100.00
65832;BME280;52593;42.648;23.332;2023-12-22T09:34:52;92966.31;;;3.34;100.00
65832;BME280;52593;42.648;23.332;2023-12-22T09:37:18;92953.28;;;3.47;100.00
65832;BME280;52593;42.648;23.332;2023-12-22T09:39:43;92961.88;;;3.49;100.00
65832;BME280;52593;42.648;23.332;2023-12-22T09:42:09;92950.94;;;3.52;100.00
65832;BME280;52593;42.648;23.332;2023-12-22T09:44:36;92950.94;;;3.67;100.00
65832;BME280;52593;42.648;23.332;2023-12-22T09:47:05;92944.47;;;3.70;99.62
65832;BME280;52593;42.648;23.332;2023-12-22T09:49:33;92940.81;;;3.71;100.00
65832;BME280;52593;42.648;23.332;2023-12-22T09:51:59;92938.34;;;3.84;99.52
65832;BME280;52593;42.648;23.332;2023-12-22T09:54:29;92942.75;;;3.77;100.00
65832;BME280;52593;42.648;23.332;2023-12-22T09:56:56;92933.78;;;3.63;100.00
65832;BME280;52593;42.648;23.332;2023-12-22T09:59:22;92935.06;;;3.67;100.00
65832;BME280;52593;42.648;23.332;2023-12-22T10:01:50;92932.16;;;3.77;100.00
65832;BME280;52593;42.648;23.332;2023-12-22T10:04:16;92930.22;;;3.86;100.00
65832;BME280;52593;42.648;23.332;2023-12-22T10:06:41;92936.91;;;3.97;100.00
65832;BME280;52593;42.648;23.332;2023-12-22T10:09:10;92932.31;;;3.90;100.00
65832;BME280;52593;42.648;23.332;2023-12-22T10:11:39;92910.09;;;4.00;100.00
65832;BME280;52593;42.648;23.332;2023-12-22T10:14:06;92921.66;;;4.14;99.36
65832;BME280;52593;42.648;23.332;2023-12-22T10:16:33;92914.53;;;3.99;99.91
65832;BME280;52593;42.648;23.332;2023-12-22T10:18:59;92924.56;;;4.04;100.00
65832;BME280;52593;42.648;23.332;2023-12-22T10:21:25;92908.06;;;3.87;100.00
65832;BME280;52593;42.648;23.332;2023-12-22T10:23:50;92888.00;;;3.92;100.00
65832;BME280;52593;42.648;23.332;2023-12-22T10:26:16;92889.78;;;4.07;100.00
65832;BME280;52593;42.648;23.332;2023-12-22T10:28:42;92887.56;;;4.25;100.00
65832;BME280;52593;42.648;23.332;2023-12-22T10:31:09;92891.13;;;4.33;98.70
65832;BME280;52593;42.648;23.332;2023-12-22T10:33:34;92879.72;;;4.32;98.38
65832;BME280;52593;42.648;23.332;2023-12-22T10:36:00;92881.69;;;4.45;98.68
65832;BME280;52593;42.648;23.332;2023-12-22T10:38:34;92874.81;;;4.51;98.20
65832;BME280;52593;42.648;23.332;2023-12-22T10:41:01;92874.41;;;4.69;97.69
65832;BME280;52593;42.648;23.332;2023-12-22T10:43:27;92869.91;;;4.69;98.44
65832;BME280;52593;42.648;23.332;2023-12-22T10:45:52;92858.50;;;4.69;97.39
65832;BME280;52593;42.648;23.332;2023-12-22T10:48:18;92863.13;;;4.88;97.08
65832;BME280;52593;42.648;23.332;2023-12-22T10:50:44;92852.34;;;4.90;96.87
65832;BME280;52593;42.648;23.332;2023-12-22T10:53:12;92834.50;;;4.98;98.78
65832;BME280;52593;42.648;23.332;2023-12-22T10:55:38;92838.09;;;5.19;99.51
65832;BME280;52593;42.648;23.332;2023-12-22T10:58:03;92841.53;;;5.41;97.86
65832;BME280;52593;42.648;23.332;2023-12-22T11:00:32;92839.16;;;5.53;97.34
65832;BME280;52593;42.648;23.332;2023-12-22T11:03:01;92827.38;;;5.62;97.76
65832;BME280;52593;42.648;23.332;2023-12-22T11:05:29;92833.38;;;5.78;97.55
65832;BME280;52593;42.648;23.332;2023-12-22T11:07:59;92824.53;;;5.99;96.55
65832;BME280;52593;42.648;23.332;2023-12-22T11:10:27;92819.44;;;6.11;94.77
65832;BME280;52593;42.648;23.332;2023-12-22T11:12:57;92809.47;;;6.19;92.32
65832;BME280;52593;42.648;23.332;2023-12-22T11:15:23;92797.41;;;6.17;93.74
65832;BME280;52593;42.648;23.332;2023-12-22T11:17:51;92789.69;;;6.29;94.97
65832;BME280;52593;42.648;23.332;2023-12-22T11:20:17;92780.94;;;6.48;95.58
65832;BME280;52593;42.648;23.332;2023-12-22T11:22:44;92781.38;;;6.65;94.55
65832;BME280;52593;42.648;23.332;2023-12-22T11:25:10;92774.44;;;6.77;90.72
65832;BME280;52593;42.648;23.332;2023-12-22T11:27:37;92784.03;;;6.85;90.91
65832;BME280;52593;42.648;23.332;2023-12-22T11:30:04;92793.63;;;7.00;91.56
65832;BME280;52593;42.648;23.332;2023-12-22T11:32:33;92790.56;;;6.76;87.77
65832;BME280;52593;42.648;23.332;2023-12-22T11:34:59;92800.19;;;6.84;82.74
65832;BME280;52593;42.648;23.332;2023-12-22T11:37:25;92806.34;;;6.97;79.31
65832;BME280;52593;42.648;23.332;2023-12-22T11:39:51;92792.63;;;7.21;78.89
65832;BME280;52593;42.648;23.332;2023-12-22T11:42:45;92808.56;;;7.07;77.05
65832;BME280;52593;42.648;23.332;2023-12-22T11:45:12;92827.19;;;6.81;76.43
65832;BME280;52593;42.648;23.332;2023-12-22T11:47:40;92831.88;;;6.58;77.42
65832;BME280;52593;42.648;23.332;2023-12-22T11:50:28;92839.19;;;6.56;77.80
65832;BME280;52593;42.648;23.332;2023-12-22T11:52:54;92828.34;;;6.45;78.75
65832;BME280;52593;42.648;23.332;2023-12-22T12:01:02;92818.31;;;6.33;78.34
65832;BME280;52593;42.648;23.332;2023-12-22T12:03:31;92831.38;;;6.41;78.28
65832;BME280;52593;42.648;23.332;2023-12-22T12:06:10;92832.63;;;6.39;77.80
65832;BME280;52593;42.648;23.332;2023-12-22T12:08:36;92838.69;;;6.26;76.04
65832;BME280;52593;42.648;23.332;2023-12-22T12:11:01;92821.56;;;6.29;76.16
65832;BME280;52593;42.648;23.332;2023-12-22T12:13:30;92835.03;;;6.27;75.85
65832;BME280;52593;42.648;23.332;2023-12-22T12:15:58;92850.16;;;6.27;75.99
65832;BME280;52593;42.648;23.332;2023-12-22T12:18:27;92841.75;;;6.23;75.42
65832;BME280;52593;42.648;23.332;2023-12-22T12:20:53;92844.19;;;6.18;75.81
65832;BME280;52593;42.648;23.332;2023-12-22T12:23:19;92829.28;;;6.17;75.75
65832;BME280;52593;42.648;23.332;2023-12-22T12:25:45;92814.53;;;6.07;74.33
65832;BME280;52593;42.648;23.332;2023-12-22T12:28:10;92800.44;;;6.07;73.32
65832;BME280;52593;42.648;23.332;2023-12-22T12:30:38;92805.75;;;6.00;72.40
65832;BME280;52593;42.648;23.332;2023-12-22T12:33:11;92804.31;;;6.04;71.91
65832;BME280;52593;42.648;23.332;2023-12-22T12:35:38;92809.41;;;6.06;72.56
65832;BME280;52593;42.648;23.332;2023-12-22T12:38:04;92794.13;;;6.08;71.97
65832;BME280;52593;42.648;23.332;2023-12-22T12:40:29;92768.59;;;6.07;71.48
65832;BME280;52593;42.648;23.332;2023-12-22T12:42:58;92783.72;;;6.06;71.39
65832;BME280;52593;42.648;23.332;2023-12-22T12:45:24;92763.28;;;6.00;71.44
65832;BME280;52593;42.648;23.332;2023-12-22T12:47:59;92758.78;;;6.01;71.30
65832;BME280;52593;42.648;23.332;2023-12-22T12:50:26;92754.88;;;5.97;70.74
65832;BME280;52593;42.648;23.332;2023-12-22T12:52:55;92763.06;;;6.02;71.01
65832;BME280;52593;42.648;23.332;2023-12-22T12:55:21;92769.38;;;6.01;69.78
65832;BME280;52593;42.648;23.332;2023-12-22T12:57:54;92774.69;;;6.01;67.82
65832;BME280;52593;42.648;23.332;2023-12-22T13:02:50;92802.91;;;6.09;66.74
65832;BME280;52593;42.648;23.332;2023-12-22T13:05:25;92814.56;;;6.14;67.29
65832;BME280;52593;42.648;23.332;2023-12-22T13:07:51;92825.19;;;6.14;67.46